Time;durP1;ratioP1;P1;durP2;ratioP2;P2;SDS_P1;SDS_P2;PMS_P1;PMS_P2;Temp;Humidity;BMP_temperature;BMP_pressure;BME280_temperature;BME280_humidity;BME280_pressure;Samples;Min_cycle;Max_cycle;Signal;HPM_P1;HPM_P2
2021/12/24 00:02:27;;;;;;;16.27;10.77;;;3.20;99.90;;;;;;5023317;28;20417;-79
2021/12/24 00:05:12;;;;;;;14.37;8.93;;;3.10;99.90;;;;;;5009550;28;20779;-79
2021/12/24 00:07:56;;;;;;;17.20;9.47;;;3.30;99.90;;;;;;4995776;28;20380;-79
2021/12/24 00:10:43;;;;;;;19.47;11.80;;;3.30;99.90;;;;;;5031355;28;20401;-79
2021/12/24 00:13:34;;;;;;;21.47;10.60;;;3.40;99.90;;;;;;5025040;28;20412;-79
2021/12/24 00:16:26;;;;;;;19.03;11.27;;;3.50;99.90;;;;;;5047422;28;20514;-79
2021/12/24 00:19:19;;;;;;;19.37;12.60;;;3.50;99.90;;;;;;5064348;28;20368;-79
2021/12/24 00:37:11;;;;;;;17.33;8.97;;;3.50;99.90;;;;;;5065153;28;20401;-79
2021/12/24 00:40:10;;;;;;;14.53;9.00;;;3.60;99.90;;;;;;5048099;28;20401;-78
2021/12/24 00:42:56;;;;;;;16.80;10.90;;;3.70;99.90;;;;;;5064456;28;20413;-78
2021/12/24 00:45:44;;;;;;;9.27;8.10;;;3.80;99.90;;;;;;5048271;28;20983;-79
2021/12/24 00:48:29;;;;;;;11.80;8.30;;;4.00;99.90;;;;;;5062079;28;20386;-79
2021/12/24 00:57:13;;;;;;;12.83;5.90;;;5.30;99.90;;;;;;5064843;28;20364;-79
2021/12/24 00:59:58;;;;;;;10.03;6.37;;;5.50;99.90;;;;;;5062486;28;20415;-79
2021/12/24 01:02:44;;;;;;;11.30;6.77;;;5.80;99.90;;;;;;5047985;28;20461;-79
2021/12/24 01:05:29;;;;;;;13.47;6.53;;;5.90;99.90;;;;;;5051980;28;20420;-79
2021/12/24 01:08:15;;;;;;;12.77;7.87;;;6.00;99.90;;;;;;5035264;28;20440;-79
2021/12/24 01:11:04;;;;;;;6.70;5.40;;;6.10;99.90;;;;;;5034901;28;20431;-79
2021/12/24 01:13:49;;;;;;;9.40;7.13;;;6.10;99.90;;;;;;4996590;28;20405;-79
2021/12/24 01:16:42;;;;;;;7.93;6.60;;;6.20;99.90;;;;;;4996453;28;20456;-79
2021/12/24 01:19:28;;;;;;;13.00;7.10;;;6.30;99.90;;;;;;4996489;28;20500;-79
2021/12/24 01:22:56;;;;;;;12.37;7.27;;;6.30;99.90;;;;;;5001943;28;20419;-80
2021/12/24 01:40:37;;;;;;;13.50;5.60;;;6.50;99.90;;;;;;5015990;28;20553;-79
2021/12/24 01:43:25;;;;;;;11.37;5.40;;;6.40;99.90;;;;;;5045882;28;20453;-78
2021/12/24 01:46:12;;;;;;;9.60;6.77;;;6.50;99.90;;;;;;5069814;28;20474;-78
2021/12/24 01:48:57;;;;;;;10.23;7.23;;;6.60;99.90;;;;;;5084673;28;20399;-78
2021/12/24 01:51:41;;;;;;;6.70;5.93;;;6.60;99.90;;;;;;5074233;28;20428;-78
2021/12/24 01:54:26;;;;;;;7.90;6.40;;;6.70;99.90;;;;;;5040807;28;20467;-79
2021/12/24 01:57:12;;;;;;;11.40;6.30;;;6.80;99.90;;;;;;5037641;28;20373;-79
2021/12/24 01:59:57;;;;;;;8.17;6.30;;;6.70;99.90;;;;;;5036695;28;20365;-79
2021/12/24 02:02:42;;;;;;;6.77;4.80;;;6.90;99.90;;;;;;5046804;28;20427;-79
2021/12/24 02:05:27;;;;;;;7.53;5.80;;;6.90;99.90;;;;;;5046988;28;20459;-78
2021/12/24 02:08:12;;;;;;;8.00;6.10;;;6.90;99.90;;;;;;5074666;28;20371;-79
2021/12/24 02:10:59;;;;;;;9.07;7.53;;;7.00;99.90;;;;;;5060949;28;20956;-79
2021/12/24 02:13:44;;;;;;;10.57;6.60;;;7.00;99.90;;;;;;5046804;28;20367;-79
2021/12/24 02:16:47;;;;;;;9.00;6.60;;;7.10;99.90;;;;;;4993630;28;20509;-79
2021/12/24 02:28:39;;;;;;;9.17;5.67;;;7.10;99.90;;;;;;5014977;28;20423;-79
2021/12/24 02:31:26;;;;;;;8.13;6.03;;;7.20;99.90;;;;;;4995276;28;20460;-79
2021/12/24 02:34:12;;;;;;;9.47;6.07;;;7.20;99.90;;;;;;4979643;28;20412;-79
2021/12/24 02:36:56;;;;;;;8.80;5.77;;;7.20;99.90;;;;;;4977484;28;20388;-79
2021/12/24 02:39:41;;;;;;;5.50;4.50;;;7.30;99.90;;;;;;5001796;28;20389;-79
2021/12/24 02:42:26;;;;;;;6.70;5.30;;;7.20;99.90;;;;;;4993356;28;20503;-79
2021/12/24 02:45:11;;;;;;;16.10;7.10;;;7.40;99.90;;;;;;4990374;28;20552;-79
2021/12/24 02:48:14;;;;;;;6.20;4.73;;;7.40;99.90;;;;;;5009688;28;20412;-79
2021/12/24 02:54:01;;;;;;;11.83;5.13;;;7.30;99.90;;;;;;5021486;28;20384;-78
2021/12/24 02:56:50;;;;;;;7.43;6.33;;;7.30;99.90;;;;;;4988209;28;20420;-79
2021/12/24 02:59:37;;;;;;;12.60;5.23;;;7.40;99.90;;;;;;5025477;28;20901;-79
2021/12/24 03:02:22;;;;;;;11.87;5.90;;;7.50;99.90;;;;;;5016869;28;20408;-77
2021/12/24 03:05:07;;;;;;;8.60;5.80;;;7.50;99.90;;;;;;5019127;28;20493;-78
2021/12/24 03:07:52;;;;;;;8.10;5.33;;;7.50;99.90;;;;;;5033191;28;20408;-77
2021/12/24 03:10:58;;;;;;;5.73;5.00;;;7.50;99.90;;;;;;5059687;28;20429;-77
2021/12/24 03:13:43;;;;;;;10.17;7.00;;;7.40;99.90;;;;;;4986834;28;20420;-79
2021/12/24 03:16:30;;;;;;;7.43;5.00;;;7.30;99.90;;;;;;5040226;28;20409;-79
2021/12/24 03:19:14;;;;;;;11.77;6.33;;;7.30;99.90;;;;;;5025378;28;20403;-79
2021/12/24 03:22:14;;;;;;;12.53;5.97;;;7.30;99.90;;;;;;5030285;28;20435;-78
2021/12/24 03:24:58;;;;;;;9.00;6.03;;;7.10;99.90;;;;;;5036147;28;20446;-79
2021/12/24 03:27:43;;;;;;;9.60;6.37;;;6.90;99.90;;;;;;5034857;28;20397;-79
2021/12/24 03:30:29;;;;;;;7.00;6.27;;;6.90;99.90;;;;;;5003624;28;20422;-79
2021/12/24 03:33:13;;;;;;;7.50;6.77;;;6.80;99.90;;;;;;4985239;28;20396;-79
2021/12/24 03:35:57;;;;;;;4.87;4.40;;;6.80;99.90;;;;;;4984997;28;20515;-79
2021/12/24 03:38:42;;;;;;;12.60;6.07;;;6.80;99.90;;;;;;4998764;28;20513;-79
2021/12/24 03:41:26;;;;;;;10.60;6.17;;;7.00;99.90;;;;;;4998890;28;20403;-80
2021/12/24 03:44:13;;;;;;;7.87;5.33;;;7.00;99.90;;;;;;4959655;29;20395;-79
2021/12/24 03:47:08;;;;;;;9.70;6.00;;;7.10;99.90;;;;;;4943120;28;20467;-79
2021/12/24 03:50:02;;;;;;;7.67;6.67;;;7.10;99.90;;;;;;4927098;29;20400;-79
2021/12/24 03:53:03;;;;;;;14.53;6.57;;;7.10;99.90;;;;;;4941138;29;20792;-78
2021/12/24 03:55:47;;;;;;;12.50;5.47;;;7.20;99.90;;;;;;4929718;29;20464;-79
2021/12/24 03:58:32;;;;;;;8.43;5.97;;;7.10;99.90;;;;;;4941447;29;20423;-79
2021/12/24 04:01:16;;;;;;;12.00;7.47;;;7.00;99.90;;;;;;4951130;29;20414;-79
2021/12/24 04:04:00;;;;;;;7.70;5.43;;;7.10;99.90;;;;;;4959978;28;20486;-79
2021/12/24 04:06:47;;;;;;;6.80;5.90;;;6.90;99.90;;;;;;4965827;28;20495;-79
2021/12/24 04:09:32;;;;;;;7.80;5.70;;;6.90;99.90;;;;;;4979932;28;20379;-79
2021/12/24 04:12:16;;;;;;;12.50;6.40;;;6.80;99.90;;;;;;4968118;28;20442;-79
2021/12/24 04:15:02;;;;;;;8.80;5.93;;;6.70;99.90;;;;;;5034691;28;20430;-79
2021/12/24 04:17:48;;;;;;;6.73;5.93;;;6.70;99.90;;;;;;5084247;28;20421;-78
2021/12/24 04:26:33;;;;;;;9.90;5.90;;;7.30;99.90;;;;;;5076222;28;20474;-79
2021/12/24 04:29:18;;;;;;;9.40;5.87;;;7.40;99.90;;;;;;5076774;28;20441;-79
2021/12/24 04:32:14;;;;;;;9.97;6.27;;;7.30;99.90;;;;;;5038197;28;20390;-79
2021/12/24 04:35:14;;;;;;;8.70;6.40;;;7.40;99.90;;;;;;5063240;28;20378;-79
2021/12/24 04:38:22;;;;;;;13.70;5.67;;;7.40;99.90;;;;;;5050306;28;20369;-80
2021/12/24 05:05:23;;;;;;;9.90;6.80;;;7.50;99.90;;;;;;5038385;28;20573;-79
2021/12/24 05:08:18;;;;;;;11.40;5.90;;;7.40;99.90;;;;;;5039147;28;20362;-79
2021/12/24 05:11:02;;;;;;;10.53;7.27;;;7.50;99.90;;;;;;4996822;28;20475;-79
2021/12/24 05:13:49;;;;;;;8.70;7.43;;;7.60;99.90;;;;;;4964295;28;20429;-79
2021/12/24 05:16:53;;;;;;;12.90;6.07;;;7.50;99.90;;;;;;4977478;28;20414;-79
2021/12/24 05:22:34;;;;;;;7.40;5.73;;;7.60;99.90;;;;;;4945605;29;20442;-79
2021/12/24 05:25:19;;;;;;;6.67;6.03;;;7.70;99.90;;;;;;4931385;29;20461;-79
2021/12/24 05:28:05;;;;;;;7.23;5.60;;;7.70;99.90;;;;;;4930985;29;20410;-78
2021/12/24 05:30:50;;;;;;;9.13;6.87;;;7.70;99.90;;;;;;4946645;29;20439;-77
2021/12/24 05:33:34;;;;;;;6.07;5.57;;;7.70;99.90;;;;;;4946451;29;20478;-79
2021/12/24 05:36:19;;;;;;;6.30;5.37;;;7.70;99.90;;;;;;4957691;29;21136;-79
2021/12/24 05:39:04;;;;;;;7.40;6.00;;;7.70;99.90;;;;;;4944596;29;20493;-79
2021/12/24 05:41:50;;;;;;;11.50;5.97;;;7.70;99.90;;;;;;4975708;28;20408;-79
2021/12/24 05:44:34;;;;;;;6.10;5.50;;;7.70;99.90;;;;;;4984547;28;20425;-79
2021/12/24 05:47:19;;;;;;;8.20;6.47;;;7.70;99.90;;;;;;5022100;28;20373;-78
2021/12/24 05:50:05;;;;;;;7.77;6.00;;;7.50;99.90;;;;;;5021805;28;20418;-79
2021/12/24 05:52:51;;;;;;;6.27;5.60;;;7.70;99.90;;;;;;5027875;28;20407;-79
2021/12/24 05:55:35;;;;;;;8.63;6.00;;;7.70;99.90;;;;;;5035575;28;20403;-79
2021/12/24 05:58:21;;;;;;;7.40;6.60;;;7.70;99.90;;;;;;5038739;28;20391;-79
2021/12/24 06:01:06;;;;;;;6.90;5.77;;;7.70;99.90;;;;;;5026022;28;20398;-79
2021/12/24 06:03:54;;;;;;;11.43;6.23;;;7.70;99.90;;;;;;5037575;28;20458;-79
2021/12/24 06:06:38;;;;;;;9.50;6.40;;;7.80;99.90;;;;;;5023490;28;20458;-79
2021/12/24 06:09:23;;;;;;;7.10;5.30;;;7.80;99.90;;;;;;5023337;28;20737;-79
2021/12/24 06:12:09;;;;;;;7.67;5.80;;;7.80;99.90;;;;;;5051101;28;20365;-79
2021/12/24 06:15:00;;;;;;;6.97;6.03;;;7.80;99.90;;;;;;5036573;28;20436;-79
2021/12/24 06:17:46;;;;;;;5.83;5.33;;;7.80;99.90;;;;;;5024036;28;20390;-79
2021/12/24 06:20:34;;;;;;;7.27;5.13;;;7.80;99.90;;;;;;5037371;28;20483;-79
2021/12/24 06:23:20;;;;;;;9.10;5.80;;;7.70;99.90;;;;;;5037202;28;20383;-79
2021/12/24 06:26:06;;;;;;;8.90;6.63;;;7.60;99.90;;;;;;5036266;28;20443;-79
2021/12/24 06:28:50;;;;;;;9.20;6.07;;;7.80;99.90;;;;;;5039761;28;20393;-79
2021/12/24 06:31:36;;;;;;;7.60;6.67;;;7.80;99.90;;;;;;5054528;28;20435;-79
2021/12/24 06:34:20;;;;;;;9.10;6.00;;;7.80;99.90;;;;;;5026886;28;20455;-80
2021/12/24 06:37:05;;;;;;;10.17;6.87;;;7.90;99.90;;;;;;5038818;28;20392;-80
2021/12/24 06:39:51;;;;;;;6.80;5.77;;;7.90;99.90;;;;;;5025770;28;20514;-79
2021/12/24 06:42:35;;;;;;;6.10;5.50;;;7.90;99.90;;;;;;5053817;28;20398;-79
2021/12/24 06:45:24;;;;;;;10.50;6.63;;;7.90;99.90;;;;;;5053870;28;20470;-79
2021/12/24 06:48:08;;;;;;;12.57;6.67;;;7.90;99.90;;;;;;5054051;28;20425;-79
2021/12/24 06:50:53;;;;;;;10.10;6.93;;;7.90;99.90;;;;;;5059323;28;20373;-77
2021/12/24 06:53:38;;;;;;;8.13;6.70;;;7.90;99.90;;;;;;5080245;28;21028;-77
2021/12/24 06:56:22;;;;;;;7.17;6.13;;;7.80;99.90;;;;;;5051704;28;20544;-78
2021/12/24 06:59:08;;;;;;;8.00;5.80;;;7.90;99.90;;;;;;5051771;28;20409;-78
2021/12/24 07:01:54;;;;;;;8.37;6.87;;;7.90;99.90;;;;;;5051926;28;20388;-78
2021/12/24 07:04:39;;;;;;;12.37;6.80;;;7.80;99.90;;;;;;5079787;28;20384;-77
2021/12/24 07:07:23;;;;;;;10.20;6.80;;;7.80;99.90;;;;;;5050959;28;20468;-78
2021/12/24 07:10:08;;;;;;;8.03;6.37;;;7.80;99.90;;;;;;5064627;28;20510;-79
2021/12/24 07:12:53;;;;;;;7.97;6.57;;;7.80;99.90;;;;;;5059701;28;20427;-79
2021/12/24 07:15:38;;;;;;;7.03;6.20;;;7.70;99.90;;;;;;5061559;28;20756;-79
2021/12/24 07:18:22;;;;;;;8.50;6.87;;;7.60;99.90;;;;;;5032634;28;20395;-79
2021/12/24 07:21:07;;;;;;;8.27;6.97;;;7.50;99.90;;;;;;5031193;28;20423;-79
2021/12/24 07:23:51;;;;;;;10.90;6.60;;;7.50;99.90;;;;;;5026273;28;20464;-79
2021/12/24 07:26:36;;;;;;;6.30;5.63;;;7.40;99.90;;;;;;5039521;28;20601;-79
2021/12/24 07:29:20;;;;;;;10.67;7.67;;;7.50;99.90;;;;;;5041243;28;20418;-79
2021/12/24 07:32:06;;;;;;;10.63;7.13;;;7.50;99.90;;;;;;5040597;28;20399;-79
2021/12/24 07:34:50;;;;;;;11.17;7.77;;;7.50;99.90;;;;;;5041117;28;20446;-79
2021/12/24 07:37:37;;;;;;;7.60;6.27;;;7.60;99.90;;;;;;5039542;28;20403;-79
2021/12/24 07:40:25;;;;;;;11.07;5.97;;;7.60;99.90;;;;;;5040079;28;20382;-79
2021/12/24 07:43:09;;;;;;;11.00;7.40;;;7.70;99.90;;;;;;5040221;28;20423;-79
2021/12/24 07:45:55;;;;;;;7.33;6.73;;;7.70;99.90;;;;;;5025038;28;20548;-79
2021/12/24 07:48:47;;;;;;;10.40;6.47;;;7.60;99.90;;;;;;5025159;28;20508;-79
2021/12/24 07:54:33;;;;;;;11.87;6.87;;;7.70;99.90;;;;;;5027375;28;20450;-79
2021/12/24 07:57:17;;;;;;;8.20;6.93;;;7.70;99.90;;;;;;5024556;28;20409;-79
2021/12/24 08:00:06;;;;;;;11.43;8.23;;;7.60;99.90;;;;;;5024979;28;20457;-79
2021/12/24 08:02:51;;;;;;;9.70;6.73;;;7.70;99.90;;;;;;5010485;28;20538;-79
2021/12/24 08:05:40;;;;;;;8.30;6.30;;;7.80;99.90;;;;;;5010740;28;20917;-79
2021/12/24 08:08:25;;;;;;;9.40;6.03;;;7.80;99.90;;;;;;5039196;28;20948;-79
2021/12/24 08:11:10;;;;;;;8.90;5.87;;;7.80;99.90;;;;;;5019521;28;20386;-79
2021/12/24 08:13:55;;;;;;;8.57;6.27;;;7.90;99.90;;;;;;5018512;28;20465;-79
2021/12/24 08:16:39;;;;;;;8.90;6.33;;;7.90;99.90;;;;;;5018963;28;20375;-79
2021/12/24 08:19:24;;;;;;;10.07;6.90;;;7.90;99.90;;;;;;5018420;28;20398;-79
2021/12/24 08:22:11;;;;;;;8.40;7.23;;;7.90;99.90;;;;;;5020027;28;20822;-78
2021/12/24 08:24:56;;;;;;;7.60;6.80;;;8.00;99.90;;;;;;5021770;28;20999;-79
2021/12/24 08:27:40;;;;;;;13.20;6.87;;;8.00;99.90;;;;;;5054074;28;20380;-79
2021/12/24 08:30:25;;;;;;;7.20;5.83;;;8.00;99.90;;;;;;5023524;28;20389;-78
2021/12/24 08:33:14;;;;;;;9.97;5.97;;;8.10;99.90;;;;;;5052085;28;20358;-78
2021/12/24 08:36:02;;;;;;;7.90;5.70;;;8.10;99.90;;;;;;5024192;28;20477;-78
2021/12/24 08:38:46;;;;;;;7.43;5.63;;;8.10;99.90;;;;;;5052030;28;20764;-78
2021/12/24 08:41:30;;;;;;;6.07;5.47;;;8.10;99.90;;;;;;5031452;28;20455;-78
2021/12/24 08:44:15;;;;;;;9.97;6.80;;;8.10;99.90;;;;;;5018729;28;20412;-78
2021/12/24 08:47:03;;;;;;;6.93;6.10;;;8.00;99.90;;;;;;5020297;28;20832;-79
2021/12/24 08:49:49;;;;;;;7.10;6.37;;;8.00;99.90;;;;;;5011915;28;20491;-78
2021/12/24 08:52:33;;;;;;;8.10;6.70;;;8.00;99.90;;;;;;5006922;28;20420;-78
2021/12/24 08:55:17;;;;;;;12.53;6.93;;;8.00;99.90;;;;;;5033594;28;20421;-78
2021/12/24 08:58:02;;;;;;;11.73;7.90;;;8.00;99.90;;;;;;5023904;28;20435;-78
2021/12/24 09:00:47;;;;;;;7.57;6.77;;;8.10;99.90;;;;;;4991678;28;20415;-78
2021/12/24 09:03:31;;;;;;;9.93;6.13;;;8.00;99.90;;;;;;4991067;28;20467;-78
2021/12/24 09:06:16;;;;;;;12.07;6.77;;;7.90;99.90;;;;;;4999029;28;20476;-78
2021/12/24 09:09:02;;;;;;;8.00;6.00;;;7.90;99.90;;;;;;5005218;28;20456;-78
2021/12/24 09:11:47;;;;;;;8.30;5.73;;;7.90;99.90;;;;;;4997986;28;20392;-78
2021/12/24 09:14:32;;;;;;;9.77;6.20;;;7.90;99.90;;;;;;4985561;28;20483;-78
2021/12/24 09:17:17;;;;;;;7.63;5.73;;;8.00;99.90;;;;;;4997749;28;20424;-78
2021/12/24 09:20:02;;;;;;;6.83;5.33;;;8.00;99.90;;;;;;4983352;28;20414;-78
2021/12/24 09:22:49;;;;;;;7.87;7.07;;;8.00;99.90;;;;;;5038176;28;20443;-78
2021/12/24 09:25:33;;;;;;;10.80;7.20;;;7.90;99.90;;;;;;5038919;28;20445;-79
2021/12/24 09:28:18;;;;;;;7.73;6.07;;;7.90;99.90;;;;;;5026275;28;20402;-78
2021/12/24 09:31:02;;;;;;;6.60;5.90;;;7.80;99.90;;;;;;5039006;28;20411;-80
2021/12/24 09:33:47;;;;;;;8.77;5.87;;;7.90;99.90;;;;;;5039421;28;20477;-79
2021/12/24 09:36:31;;;;;;;6.07;5.53;;;8.00;99.90;;;;;;5011544;28;20380;-79
2021/12/24 09:39:16;;;;;;;10.90;6.60;;;8.10;99.90;;;;;;5024932;28;20402;-79
2021/12/24 09:42:02;;;;;;;7.70;6.30;;;8.20;99.90;;;;;;5039124;28;20748;-78
2021/12/24 09:44:46;;;;;;;7.47;4.60;;;8.20;99.90;;;;;;5041778;28;20500;-79
2021/12/24 09:47:31;;;;;;;8.07;5.23;;;8.30;99.90;;;;;;5043431;28;20456;-79
2021/12/24 09:50:23;;;;;;;6.50;5.87;;;8.30;99.90;;;;;;5057221;28;20385;-79
2021/12/24 09:53:07;;;;;;;6.63;6.03;;;8.30;99.90;;;;;;5057704;28;20884;-79
2021/12/24 09:55:52;;;;;;;13.83;4.70;;;8.30;99.90;;;;;;5057090;28;20479;-79
2021/12/24 09:58:37;;;;;;;9.93;6.80;;;8.30;99.90;;;;;;5071879;28;20422;-79
2021/12/24 10:01:42;;;;;;;4.80;4.20;;;8.40;99.90;;;;;;5037577;28;20764;-79
2021/12/24 10:04:30;;;;;;;6.57;4.37;;;8.40;99.90;;;;;;5042555;28;20513;-81
2021/12/24 10:07:17;;;;;;;6.73;5.10;;;8.40;99.90;;;;;;5046777;28;20422;-81
2021/12/24 10:10:07;;;;;;;9.93;4.97;;;8.40;99.90;;;;;;5048569;28;20461;-81
2021/12/24 10:12:52;;;;;;;8.37;5.53;;;8.40;99.90;;;;;;5048881;28;20550;-81
2021/12/24 10:15:54;;;;;;;5.20;3.93;;;8.50;99.90;;;;;;5049384;28;20430;-81
2021/12/24 10:18:45;;;;;;;6.43;4.80;;;8.60;99.90;;;;;;5049702;28;20493;-81
2021/12/24 10:21:32;;;;;;;5.30;4.80;;;8.40;99.90;;;;;;5064207;28;20489;-81
2021/12/24 10:24:18;;;;;;;5.70;5.23;;;8.60;99.90;;;;;;5051236;28;20387;-81
2021/12/24 10:27:03;;;;;;;7.43;5.13;;;8.60;99.90;;;;;;5054501;28;20549;-81
2021/12/24 10:29:48;;;;;;;5.60;4.13;;;8.70;99.90;;;;;;5054061;28;20369;-81
2021/12/24 10:32:39;;;;;;;4.70;4.20;;;8.60;99.90;;;;;;5052500;28;20392;-80
2021/12/24 10:35:26;;;;;;;3.83;3.47;;;8.70;99.90;;;;;;5059387;28;20403;-80
2021/12/24 10:38:14;;;;;;;6.87;3.37;;;8.70;99.90;;;;;;5060236;28;20449;-81
2021/12/24 10:41:06;;;;;;;5.70;3.40;;;8.70;99.90;;;;;;5053899;28;20390;-80
2021/12/24 10:43:53;;;;;;;4.90;4.43;;;8.90;99.90;;;;;;5050691;28;20378;-81
2021/12/24 10:46:37;;;;;;;3.90;3.47;;;8.90;99.90;;;;;;5050464;28;20476;-81
2021/12/24 10:49:37;;;;;;;4.23;3.83;;;8.90;99.90;;;;;;5050626;28;20926;-80
2021/12/24 10:52:41;;;;;;;7.60;4.50;;;8.90;99.90;;;;;;5050646;28;20399;-82
2021/12/24 10:55:34;;;;;;;3.10;2.80;;;8.80;99.90;;;;;;5050407;28;20418;-81
2021/12/24 10:58:25;;;;;;;3.63;3.23;;;8.80;99.90;;;;;;5048629;28;20775;-80
2021/12/24 11:01:16;;;;;;;13.97;3.40;;;8.80;99.90;;;;;;5048570;28;20420;-81
2021/12/24 11:04:00;;;;;;;3.73;2.70;;;8.80;99.90;;;;;;5050669;28;20403;-81
2021/12/24 11:06:45;;;;;;;3.30;3.00;;;8.90;99.90;;;;;;5050042;28;20512;-81
2021/12/24 11:09:29;;;;;;;4.50;3.47;;;9.00;99.90;;;;;;5050407;28;20357;-81
2021/12/24 11:12:35;;;;;;;3.27;2.90;;;9.00;99.90;;;;;;5051713;28;20386;-80
2021/12/24 11:15:31;;;;;;;3.90;2.93;;;9.10;99.90;;;;;;5053480;28;20403;-82
2021/12/24 11:18:19;;;;;;;2.80;2.60;;;9.10;99.90;;;;;;5053132;28;20961;-81
2021/12/24 11:21:07;;;;;;;7.23;3.60;;;9.10;99.90;;;;;;5052364;28;20435;-81
2021/12/24 11:23:53;;;;;;;5.00;3.90;;;9.00;99.90;;;;;;5051226;28;20419;-82
2021/12/24 11:26:50;;;;;;;3.50;3.13;;;9.00;99.90;;;;;;5050455;28;20461;-81
2021/12/24 11:29:34;;;;;;;15.10;3.47;;;9.10;99.90;;;;;;5068958;28;20455;-82
2021/12/24 11:32:19;;;;;;;6.27;4.00;;;9.20;99.90;;;;;;5070051;28;20402;-81
2021/12/24 11:35:04;;;;;;;5.80;4.77;;;9.10;99.90;;;;;;5066933;28;20441;-81
2021/12/24 11:37:51;;;;;;;6.53;3.63;;;9.20;99.90;;;;;;5069834;28;20465;-81
2021/12/24 11:40:35;;;;;;;6.13;4.10;;;9.30;99.90;;;;;;5054991;28;20911;-81
2021/12/24 11:43:22;;;;;;;5.30;4.80;;;9.20;99.90;;;;;;5057021;28;20433;-81
2021/12/24 11:46:09;;;;;;;5.87;4.73;;;9.20;99.90;;;;;;5074020;28;20509;-81
2021/12/24 11:48:55;;;;;;;7.20;4.43;;;9.20;99.90;;;;;;5054600;28;20457;-81
2021/12/24 11:51:41;;;;;;;5.43;4.10;;;9.20;99.90;;;;;;5086307;28;20362;-81
2021/12/24 11:54:25;;;;;;;7.47;4.60;;;9.10;99.90;;;;;;5055349;28;20370;-81
2021/12/24 11:57:22;;;;;;;8.50;5.50;;;9.20;99.90;;;;;;5051187;28;20378;-82
2021/12/24 12:00:12;;;;;;;4.57;4.17;;;9.20;99.90;;;;;;5050038;28;20447;-82
2021/12/24 12:02:58;;;;;;;6.70;5.10;;;9.20;99.90;;;;;;5050148;28;20399;-82
2021/12/24 12:05:43;;;;;;;6.40;4.20;;;9.20;99.90;;;;;;5077141;28;20470;-81
2021/12/24 12:08:36;;;;;;;5.40;4.90;;;9.20;99.90;;;;;;5049834;28;20365;-82
2021/12/24 12:11:24;;;;;;;7.30;4.10;;;9.20;99.90;;;;;;5048943;28;20399;-81
2021/12/24 12:14:25;;;;;;;6.47;4.70;;;9.30;99.90;;;;;;5050462;28;20409;-82
2021/12/24 12:17:23;;;;;;;14.73;4.60;;;9.20;99.90;;;;;;5050937;28;20426;-82
2021/12/24 12:20:15;;;;;;;4.90;4.40;;;9.20;99.90;;;;;;5050487;28;20438;-82
2021/12/24 12:23:01;;;;;;;5.13;4.33;;;9.30;99.90;;;;;;5050744;28;20431;-82
2021/12/24 12:25:46;;;;;;;8.00;5.10;;;9.30;99.90;;;;;;5048438;28;20432;-82
2021/12/24 12:28:32;;;;;;;6.80;4.40;;;9.30;99.90;;;;;;5071230;28;20445;-81
2021/12/24 12:31:21;;;;;;;5.43;4.93;;;9.30;99.90;;;;;;5082361;28;20372;-81
2021/12/24 12:34:39;;;;;;;5.10;4.20;;;9.30;99.90;;;;;;5069639;28;20359;-81
2021/12/24 12:37:45;;;;;;;5.13;4.50;;;9.20;99.90;;;;;;5071061;28;20775;-81
2021/12/24 12:40:34;;;;;;;6.30;3.70;;;9.20;99.90;;;;;;5072042;28;20399;-80
2021/12/24 12:43:20;;;;;;;12.10;4.83;;;9.20;99.90;;;;;;5069608;28;20445;-81
2021/12/24 12:46:05;;;;;;;8.27;5.07;;;9.20;99.90;;;;;;5069462;28;20469;-81
2021/12/24 12:48:52;;;;;;;6.20;3.93;;;9.20;99.90;;;;;;5068061;28;20373;-81
2021/12/24 12:51:54;;;;;;;4.60;4.20;;;9.30;99.90;;;;;;5069823;28;20394;-80
2021/12/24 12:54:43;;;;;;;12.40;5.40;;;9.20;99.90;;;;;;5068798;28;20361;-81
2021/12/24 12:57:38;;;;;;;4.97;4.47;;;9.10;99.90;;;;;;5053943;28;20396;-80
2021/12/24 13:00:27;;;;;;;6.60;3.63;;;9.10;99.90;;;;;;5068670;28;20394;-79
2021/12/24 13:03:12;;;;;;;5.50;4.37;;;9.10;99.90;;;;;;5068513;28;20424;-80
2021/12/24 13:06:01;;;;;;;4.30;3.60;;;9.10;99.90;;;;;;5068210;28;20457;-80
2021/12/24 13:08:46;;;;;;;5.67;4.93;;;9.10;99.90;;;;;;5067249;28;20471;-80
2021/12/24 13:11:41;;;;;;;9.80;5.00;;;9.10;99.90;;;;;;5068724;28;20880;-80
2021/12/24 13:14:29;;;;;;;7.60;4.30;;;9.10;99.90;;;;;;5068209;28;20422;-80
2021/12/24 13:17:18;;;;;;;6.33;3.73;;;9.00;99.90;;;;;;5066660;28;20402;-81
2021/12/24 13:20:16;;;;;;;3.60;3.17;;;9.00;99.90;;;;;;5067331;28;20895;-82
2021/12/24 13:23:02;;;;;;;6.67;5.37;;;9.10;99.90;;;;;;5065974;28;20471;-80
2021/12/24 13:25:47;;;;;;;8.10;5.17;;;9.10;99.90;;;;;;5064363;28;20456;-81
2021/12/24 13:28:31;;;;;;;8.73;6.40;;;9.00;99.90;;;;;;5064841;28;20731;-80
2021/12/24 13:31:16;;;;;;;5.53;4.10;;;9.10;99.90;;;;;;5067296;28;20509;-81
2021/12/24 13:34:08;;;;;;;5.07;3.90;;;9.10;99.90;;;;;;5065466;28;20479;-81
2021/12/24 13:36:54;;;;;;;6.33;4.70;;;9.10;99.90;;;;;;5064008;28;20410;-81
2021/12/24 13:39:46;;;;;;;7.83;6.43;;;9.00;99.90;;;;;;5065299;28;20409;-81
2021/12/24 13:42:43;;;;;;;9.60;4.63;;;9.00;99.90;;;;;;5065633;28;20409;-81
2021/12/24 13:45:33;;;;;;;5.87;3.90;;;9.10;99.90;;;;;;5065263;28;20444;-82
2021/12/24 13:48:26;;;;;;;7.60;4.53;;;9.00;99.90;;;;;;5062942;28;20423;-81
2021/12/24 13:57:17;;;;;;;5.63;4.93;;;8.90;99.90;;;;;;5063766;28;20389;-81
2021/12/24 14:00:07;;;;;;;12.80;6.35;;;8.90;99.90;;;;;;5062180;28;20413;-79
2021/12/24 14:02:54;;;;;;;7.30;6.27;;;8.90;99.90;;;;;;5065502;28;20163;-81
2021/12/24 14:05:48;;;;;;;6.23;5.23;;;8.80;99.90;;;;;;5067458;28;20997;-80
2021/12/24 14:08:36;;;;;;;10.40;7.57;;;8.90;99.90;;;;;;5067502;28;20394;-80
2021/12/24 14:11:25;;;;;;;6.50;5.90;;;8.70;99.90;;;;;;5067215;28;20390;-81
2021/12/24 14:14:15;;;;;;;8.43;6.60;;;8.80;99.90;;;;;;5068399;28;20393;-81
2021/12/24 14:17:32;;;;;;;5.93;5.43;;;8.70;99.90;;;;;;5068238;28;20398;-81
2021/12/24 14:20:23;;;;;;;12.50;5.90;;;8.60;99.90;;;;;;5066790;28;20429;-80
2021/12/24 14:23:16;;;;;;;8.50;6.73;;;8.70;99.90;;;;;;5065761;28;20473;-81
2021/12/24 14:26:04;;;;;;;8.63;6.73;;;8.70;99.90;;;;;;5065591;28;20512;-80
2021/12/24 14:28:52;;;;;;;9.47;6.20;;;8.70;99.90;;;;;;5066429;28;20412;-81
2021/12/24 14:31:52;;;;;;;8.80;6.60;;;8.70;99.90;;;;;;5064660;28;20410;-80
2021/12/24 14:34:44;;;;;;;7.03;5.73;;;8.80;99.90;;;;;;5066087;28;20400;-80
2021/12/24 14:37:36;;;;;;;7.50;6.33;;;8.70;99.90;;;;;;5065578;28;20440;-80
2021/12/24 14:40:21;;;;;;;13.60;7.80;;;8.80;99.90;;;;;;5063014;28;20418;-80
2021/12/24 14:43:13;;;;;;;8.10;6.43;;;8.80;99.90;;;;;;5063222;28;20389;-81
2021/12/24 14:45:57;;;;;;;14.37;6.63;;;8.70;99.90;;;;;;5063398;28;20501;-79
2021/12/24 14:48:41;;;;;;;8.60;6.40;;;8.80;99.90;;;;;;5066226;28;20410;-81
2021/12/24 14:51:29;;;;;;;9.50;6.40;;;8.70;99.90;;;;;;5066212;28;20865;-81
2021/12/24 14:54:14;;;;;;;8.27;6.27;;;8.70;99.90;;;;;;5069158;28;20403;-80
2021/12/24 14:57:06;;;;;;;11.57;6.67;;;8.70;99.90;;;;;;5068933;28;20410;-80
2021/12/24 14:59:50;;;;;;;6.80;5.73;;;8.60;99.90;;;;;;5055005;28;20398;-80
2021/12/24 15:02:40;;;;;;;10.40;6.63;;;8.60;99.90;;;;;;5069503;28;20373;-80
2021/12/24 15:05:28;;;;;;;10.47;5.80;;;8.50;99.90;;;;;;5068388;28;20441;-80
2021/12/24 15:08:18;;;;;;;10.73;5.97;;;8.50;99.90;;;;;;5069892;28;20756;-80
2021/12/24 15:11:09;;;;;;;7.40;6.17;;;8.60;99.90;;;;;;5070244;28;20394;-80
2021/12/24 15:13:58;;;;;;;7.30;5.30;;;8.60;99.90;;;;;;5069153;28;20403;-82
2021/12/24 15:16:46;;;;;;;10.53;6.23;;;8.40;99.90;;;;;;5069938;28;20389;-81
2021/12/24 15:19:30;;;;;;;8.57;5.10;;;8.40;99.90;;;;;;5069975;28;20390;-81
2021/12/24 15:22:15;;;;;;;6.20;5.60;;;8.30;99.90;;;;;;5070059;28;20429;-79
2021/12/24 15:25:00;;;;;;;6.10;5.53;;;8.30;99.90;;;;;;5067512;28;20368;-81
2021/12/24 15:27:44;;;;;;;8.47;5.83;;;8.40;99.90;;;;;;5068591;28;20386;-81
2021/12/24 15:30:29;;;;;;;8.70;6.30;;;8.40;99.90;;;;;;5067711;28;20398;-81
2021/12/24 15:33:14;;;;;;;5.47;4.93;;;8.50;99.90;;;;;;5068984;28;20364;-81
2021/12/24 15:35:59;;;;;;;11.93;6.47;;;8.50;99.90;;;;;;5071621;28;20874;-81
2021/12/24 15:38:43;;;;;;;8.53;6.30;;;8.50;99.90;;;;;;5069635;28;20446;-81
2021/12/24 15:41:28;;;;;;;6.50;4.73;;;8.50;99.90;;;;;;5069420;28;20392;-81
2021/12/24 15:44:14;;;;;;;6.77;4.43;;;8.40;99.90;;;;;;5069519;28;20377;-81
2021/12/24 15:46:59;;;;;;;6.50;5.10;;;8.40;99.90;;;;;;5069461;28;20428;-81
2021/12/24 15:49:43;;;;;;;6.60;5.07;;;8.30;99.90;;;;;;5068305;28;20481;-81
2021/12/24 15:52:28;;;;;;;6.03;5.20;;;8.40;99.90;;;;;;5069687;28;20394;-81
2021/12/24 15:55:13;;;;;;;8.97;5.30;;;8.20;99.90;;;;;;5069494;28;20456;-82
2021/12/24 15:58:00;;;;;;;6.83;5.13;;;8.20;99.90;;;;;;5068682;28;20392;-81
2021/12/24 16:00:48;;;;;;;8.87;5.70;;;8.10;99.90;;;;;;5068196;28;20464;-82
2021/12/24 16:03:33;;;;;;;7.37;5.70;;;8.20;99.90;;;;;;5069621;28;20489;-81
2021/12/24 16:06:20;;;;;;;5.03;4.50;;;8.10;99.90;;;;;;5068912;28;20449;-82
2021/12/24 16:09:05;;;;;;;8.53;5.90;;;8.10;99.90;;;;;;5057484;28;20420;-81
2021/12/24 16:11:50;;;;;;;7.70;4.90;;;8.10;99.90;;;;;;5049068;28;20358;-82
2021/12/24 16:14:38;;;;;;;7.90;5.60;;;8.00;99.90;;;;;;5047748;28;20374;-82